createdAt,value
2022-08-15T00:02:34.771Z,15.80
2022-08-15T00:07:49.475Z,16.08
2022-08-15T00:13:18.557Z,16.48
2022-08-15T00:18:41.793Z,19.27
2022-08-15T00:24:20.707Z,15.77
2022-08-15T00:29:49.785Z,16.00
2022-08-15T00:35:12.186Z,17.02
2022-08-15T00:40:34.613Z,16.48
2022-08-15T00:45:56.869Z,16.15
2022-08-15T00:51:29.722Z,17.60
2022-08-15T00:57:00.137Z,15.85
2022-08-15T01:02:46.411Z,16.15
2022-08-15T01:08:08.339Z,15.95
2022-08-15T01:14:02.459Z,15.93
2022-08-15T01:19:29.646Z,16.00
2022-08-15T01:25:26.319Z,15.63
2022-08-15T01:31:02.697Z,16.73
2022-08-15T01:36:32.102Z,16.48
2022-08-15T01:42:01.579Z,16.40
2022-08-15T01:47:46.637Z,15.70
2022-08-15T01:53:26.653Z,16.27
2022-08-15T01:58:56.794Z,16.65
2022-08-15T02:04:25.742Z,17.10
2022-08-15T02:09:51.689Z,17.75
2022-08-15T02:15:17.347Z,17.65
2022-08-15T02:20:39.946Z,16.52
2022-08-15T02:26:10.106Z,16.73
2022-08-15T02:31:34.469Z,16.52
2022-08-15T02:36:56.664Z,17.05
2022-08-15T02:42:18.967Z,17.00
2022-08-15T02:47:44.259Z,15.33
2022-08-15T02:53:13.855Z,17.08
2022-08-15T02:58:41.645Z,17.05
2022-08-15T03:04:28.546Z,15.90
2022-08-15T03:09:56.642Z,16.23
2022-08-15T03:15:18.875Z,15.50
2022-08-15T03:20:44.799Z,16.42
2022-08-15T03:26:25.521Z,16.00
2022-08-15T03:31:51.324Z,15.43
2022-08-15T03:37:13.138Z,14.63
2022-08-15T03:42:38.944Z,15.07
2022-08-15T03:48:02.117Z,15.13
2022-08-15T03:53:24.412Z,15.30
2022-08-15T03:58:50.684Z,14.80
2022-08-15T04:04:18.371Z,14.00
2022-08-15T04:09:43.570Z,14.32
2022-08-15T04:15:09.756Z,13.63
2022-08-15T04:20:38.515Z,13.85
2022-08-15T04:26:08.067Z,14.48
2022-08-15T04:31:32.858Z,14.57
2022-08-15T04:36:58.088Z,14.07
2022-08-15T04:42:24.302Z,15.13
2022-08-15T04:47:47.778Z,14.48
2022-08-15T04:53:09.830Z,13.75
2022-08-15T04:58:42.827Z,15.13
2022-08-15T05:04:24.102Z,13.35
2022-08-15T05:09:58.890Z,13.25
2022-08-15T05:15:23.248Z,11.93
2022-08-15T05:20:45.161Z,11.77
2022-08-15T05:26:53.140Z,10.77
2022-08-15T05:31:51.158Z,11.23
2022-08-15T05:37:14.679Z,12.40
2022-08-15T05:43:02.100Z,12.32
2022-08-15T05:48:34.036Z,13.07
2022-08-15T05:54:26.139Z,12.90
2022-08-15T06:00:00.588Z,12.57
2022-08-15T06:05:35.756Z,12.02
2022-08-15T06:11:10.428Z,10.80
2022-08-15T06:16:46.173Z,10.25
2022-08-15T06:22:09.540Z,10.38
2022-08-15T06:27:49.900Z,11.23
2022-08-15T06:33:57.099Z,11.38
2022-08-15T06:40:06.692Z,11.63
2022-08-15T06:45:36.158Z,10.70
2022-08-15T06:51:01.836Z,11.77
2022-08-15T06:56:40.369Z,12.37
2022-08-15T07:02:50.546Z,11.73
2022-08-15T07:08:17.320Z,12.82
2022-08-15T07:14:20.766Z,11.32
2022-08-15T07:19:55.672Z,11.35
2022-08-15T07:30:55.578Z,12.55
2022-08-15T07:36:30.303Z,11.73
2022-08-15T07:41:56.210Z,11.10
2022-08-15T07:47:24.995Z,11.60
2022-08-15T07:53:01.205Z,11.73
2022-08-15T07:58:26.581Z,11.57
2022-08-15T08:03:56.891Z,12.10
2022-08-15T08:09:44.405Z,12.70
2022-08-15T08:15:37.354Z,12.27
2022-08-15T08:21:08.354Z,13.82
2022-08-15T08:26:36.865Z,12.15
2022-08-15T08:32:29.988Z,12.80
2022-08-15T08:38:31.007Z,11.27
2022-08-15T08:44:17.808Z,13.30
2022-08-15T08:50:34.409Z,12.15
2022-08-15T08:55:53.730Z,12.57
2022-08-15T09:01:24.508Z,13.57
2022-08-15T09:06:52.623Z,11.52
2022-08-15T09:12:22.894Z,11.40
2022-08-15T09:17:59.895Z,11.65
2022-08-15T09:23:26.002Z,11.30
2022-08-15T09:29:18.657Z,11.52
2022-08-15T09:35:12.203Z,11.30
2022-08-15T09:41:12.103Z,11.52
2022-08-15T09:46:45.569Z,10.43
2022-08-15T09:52:47.508Z,10.80
2022-08-15T09:58:20.203Z,10.18
2022-08-15T10:03:48.138Z,10.02
2022-08-15T10:10:01.306Z,9.05
2022-08-15T10:21:15.518Z,10.13
2022-08-15T10:32:37.895Z,10.13
2022-08-15T10:37:58.965Z,9.65
2022-08-15T10:43:53.668Z,10.10
2022-08-15T10:49:31.975Z,8.73
2022-08-15T10:55:12.487Z,9.35
2022-08-15T11:00:37.355Z,9.40
2022-08-15T11:06:14.532Z,9.13
2022-08-15T11:11:44.097Z,9.13
2022-08-15T11:17:16.612Z,9.77
2022-08-15T11:22:49.295Z,9.75
2022-08-15T11:28:36.999Z,9.32
2022-08-15T11:34:37.727Z,8.32
2022-08-15T11:39:59.318Z,8.18
2022-08-15T11:51:03.352Z,8.40
2022-08-15T11:56:56.091Z,8.20
2022-08-15T12:02:31.773Z,8.40
2022-08-15T12:07:59.114Z,8.82
2022-08-15T12:13:34.371Z,7.63
2022-08-15T12:24:23.760Z,8.35
2022-08-15T12:29:51.073Z,7.97
2022-08-15T12:35:24.160Z,7.80
2022-08-15T12:40:57.498Z,8.18
2022-08-15T12:46:29.277Z,7.00
2022-08-15T12:51:51.298Z,7.55
2022-08-15T12:57:15.729Z,8.18
2022-08-15T13:02:47.798Z,6.82
2022-08-15T13:08:27.255Z,6.80
2022-08-15T13:13:52.917Z,7.57
2022-08-15T13:19:23.446Z,7.00
2022-08-15T13:24:47.840Z,7.07
2022-08-15T13:30:19.568Z,7.00
2022-08-15T13:35:58.814Z,7.22
2022-08-15T13:41:22.218Z,7.43
2022-08-15T13:47:08.733Z,6.90
2022-08-15T13:52:46.844Z,7.82
2022-08-15T13:58:19.836Z,7.43
2022-08-15T14:03:42.541Z,6.65
2022-08-15T14:09:18.612Z,7.00
2022-08-15T14:14:46.777Z,6.78
2022-08-15T14:20:27.298Z,6.80
2022-08-15T14:27:12.201Z,6.65
2022-08-15T14:31:31.297Z,6.47
2022-08-15T14:36:54.801Z,6.25
2022-08-15T14:42:21.683Z,6.15
2022-08-15T14:47:52.831Z,6.03
2022-08-15T14:53:14.869Z,5.50
2022-08-15T14:58:40.960Z,5.57
2022-08-15T15:04:20.839Z,5.95
2022-08-15T15:09:43.017Z,5.60
2022-08-15T15:15:06.393Z,5.90
2022-08-15T15:20:46.105Z,5.88
2022-08-15T15:26:10.636Z,5.70
2022-08-15T15:31:32.717Z,5.50
2022-08-15T15:36:56.287Z,5.15
2022-08-15T15:42:20.670Z,5.78
2022-08-15T15:47:59.990Z,4.80
2022-08-15T15:53:30.929Z,4.93
2022-08-15T15:59:02.080Z,3.83
2022-08-15T16:04:29.672Z,4.53
2022-08-15T16:09:55.001Z,4.25
2022-08-15T16:15:43.818Z,4.20
2022-08-15T16:21:17.220Z,5.22
2022-08-15T16:26:53.302Z,5.85
2022-08-15T16:32:33.420Z,4.70
2022-08-15T16:38:01.118Z,4.90
2022-08-15T16:43:53.386Z,5.22
2022-08-15T16:49:23.236Z,5.60
2022-08-15T16:55:02.079Z,5.78
2022-08-15T17:00:44.263Z,6.15
2022-08-15T17:06:23.422Z,6.28
2022-08-15T17:12:12.178Z,6.22
2022-08-15T17:18:11.567Z,7.13
2022-08-15T17:24:55.826Z,6.15
2022-08-15T17:30:54.065Z,6.35
2022-08-15T17:35:53.779Z,6.63
2022-08-15T17:41:20.769Z,6.40
2022-08-15T17:46:50.626Z,6.35
2022-08-15T17:52:18.945Z,6.85
2022-08-15T17:58:08.830Z,6.40
2022-08-15T18:03:31.806Z,6.68
2022-08-15T18:08:57.745Z,7.05
2022-08-15T18:20:26.868Z,7.07
2022-08-15T18:25:52.129Z,7.03
2022-08-15T18:31:21.538Z,7.05
2022-08-15T18:36:51.641Z,7.57
2022-08-15T18:42:22.495Z,11.13
2022-08-15T18:47:45.100Z,7.72
2022-08-15T18:53:19.349Z,7.78
2022-08-15T18:58:43.317Z,7.88
2022-08-15T19:04:49.267Z,7.82
2022-08-15T19:09:58.709Z,9.30
2022-08-15T19:15:24.758Z,8.63
2022-08-15T19:21:00.349Z,8.88
2022-08-15T19:26:37.583Z,8.63
2022-08-15T19:32:03.132Z,8.60
2022-08-15T19:37:51.881Z,8.83
2022-08-15T19:43:38.232Z,8.98
2022-08-15T19:49:15.204Z,9.63
2022-08-15T19:55:38.367Z,9.75
2022-08-15T20:00:56.731Z,9.35
2022-08-15T20:06:39.344Z,9.77
2022-08-15T20:12:19.272Z,10.00
2022-08-15T20:18:29.603Z,10.05
2022-08-15T20:24:07.726Z,9.63
2022-08-15T20:29:53.403Z,9.52
2022-08-15T20:35:24.493Z,9.98
2022-08-15T20:41:10.842Z,9.98
2022-08-15T20:46:45.242Z,10.23
2022-08-15T20:52:39.562Z,11.02
2022-08-15T20:57:51.986Z,10.40
2022-08-15T21:04:02.153Z,10.23
2022-08-15T21:09:16.726Z,10.70
2022-08-15T21:15:09.673Z,11.20
2022-08-15T21:20:35.583Z,10.73
2022-08-15T21:25:58.328Z,11.63
2022-08-15T21:31:38.336Z,12.35
2022-08-15T21:37:33.917Z,11.13
2022-08-15T21:43:09.866Z,11.52
2022-08-15T21:48:49.053Z,11.60
2022-08-15T21:54:21.653Z,11.82
2022-08-15T22:00:20.215Z,11.10
2022-08-15T22:05:55.177Z,11.15
2022-08-15T22:11:40.478Z,11.88
2022-08-15T22:17:02.330Z,12.10
2022-08-15T22:22:28.646Z,11.02
2022-08-15T22:27:54.039Z,12.20
2022-08-15T22:33:16.200Z,12.82
2022-08-15T22:38:38.943Z,12.20
2022-08-15T22:44:05.826Z,12.27
2022-08-15T22:49:40.419Z,12.30
2022-08-15T22:55:04.261Z,12.48
2022-08-15T23:00:34.447Z,11.75
2022-08-15T23:06:23.781Z,11.70
2022-08-15T23:11:50.039Z,11.30
2022-08-15T23:17:27.689Z,11.47
2022-08-15T23:22:51.468Z,11.07
2022-08-15T23:28:23.180Z,12.35
2022-08-15T23:33:57.901Z,12.23
2022-08-15T23:39:35.022Z,12.35
2022-08-15T23:44:59.147Z,11.10
2022-08-15T23:50:22.755Z,11.82
2022-08-15T23:55:59.411Z,11.50
